sensor_id;sensor_type;location;lat;lon;timestamp;temperature;humidity
68746;SHT31;73143;45.456;11.064;2024-03-07T00:02:39;10.95;75.04
68746;SHT31;73143;45.456;11.064;2024-03-07T00:05:18;10.95;74.97
68746;SHT31;73143;45.456;11.064;2024-03-07T00:07:56;10.97;74.91
68746;SHT31;73143;45.456;11.064;2024-03-07T00:10:32;11.00;74.50
68746;SHT31;73143;45.456;11.064;2024-03-07T00:13:09;11.00;74.33
68746;SHT31;73143;45.456;11.064;2024-03-07T00:15:45;11.03;74.36
68746;SHT31;73143;45.456;11.064;2024-03-07T00:18:21;11.03;74.15
68746;SHT31;73143;45.456;11.064;2024-03-07T00:20:58;11.03;73.75
68746;SHT31;73143;45.456;11.064;2024-03-07T00:23:35;11.03;73.47
68746;SHT31;73143;45.456;11.064;2024-03-07T00:26:12;11.02;73.84
68746;SHT31;73143;45.456;11.064;2024-03-07T00:28:49;11.01;74.07
68746;SHT31;73143;45.456;11.064;2024-03-07T00:31:26;11.01;73.96
68746;SHT31;73143;45.456;11.064;2024-03-07T00:34:03;10.98;73.89
68746;SHT31;73143;45.456;11.064;2024-03-07T00:36:51;10.97;73.90
68746;SHT31;73143;45.456;11.064;2024-03-07T00:39:28;10.96;73.92
68746;SHT31;73143;45.456;11.064;2024-03-07T00:42:04;10.96;74.01
68746;SHT31;73143;45.456;11.064;2024-03-07T00:44:42;10.96;74.10
68746;SHT31;73143;45.456;11.064;2024-03-07T00:47:18;10.96;74.07
68746;SHT31;73143;45.456;11.064;2024-03-07T00:49:55;10.96;73.87
68746;SHT31;73143;45.456;11.064;2024-03-07T00:52:32;10.96;73.86
68746;SHT31;73143;45.456;11.064;2024-03-07T00:55:09;10.95;73.93
68746;SHT31;73143;45.456;11.064;2024-03-07T00:57:47;10.92;73.97
68746;SHT31;73143;45.456;11.064;2024-03-07T01:00:23;10.93;74.19
68746;SHT31;73143;45.456;11.064;2024-03-07T01:02:59;10.96;74.13
68746;SHT31;73143;45.456;11.064;2024-03-07T01:05:36;10.95;74.07
68746;SHT31;73143;45.456;11.064;2024-03-07T01:08:13;10.94;74.11
68746;SHT31;73143;45.456;11.064;2024-03-07T01:10:50;10.93;73.86
68746;SHT31;73143;45.456;11.064;2024-03-07T01:13:26;10.90;73.75
68746;SHT31;73143;45.456;11.064;2024-03-07T01:16:03;10.85;73.80
68746;SHT31;73143;45.456;11.064;2024-03-07T01:18:42;10.81;73.83
68746;SHT31;73143;45.456;11.064;2024-03-07T01:21:18;10.77;73.85
68746;SHT31;73143;45.456;11.064;2024-03-07T01:23:55;10.73;73.89
68746;SHT31;73143;45.456;11.064;2024-03-07T01:26:32;10.71;73.77
68746;SHT31;73143;45.456;11.064;2024-03-07T01:29:09;10.68;73.87
68746;SHT31;73143;45.456;11.064;2024-03-07T01:31:45;10.63;73.96
68746;SHT31;73143;45.456;11.064;2024-03-07T01:34:22;10.59;74.07
68746;SHT31;73143;45.456;11.064;2024-03-07T01:36:59;10.55;74.10
68746;SHT31;73143;45.456;11.064;2024-03-07T01:39:38;10.52;74.08
68746;SHT31;73143;45.456;11.064;2024-03-07T01:42:13;10.48;74.15
68746;SHT31;73143;45.456;11.064;2024-03-07T01:44:50;10.46;74.13
68746;SHT31;73143;45.456;11.064;2024-03-07T01:47:27;10.44;74.18
68746;SHT31;73143;45.456;11.064;2024-03-07T01:50:05;10.40;74.15
68746;SHT31;73143;45.456;11.064;2024-03-07T01:52:44;10.32;74.21
68746;SHT31;73143;45.456;11.064;2024-03-07T01:55:24;10.28;74.26
68746;SHT31;73143;45.456;11.064;2024-03-07T01:58:02;10.26;74.29
68746;SHT31;73143;45.456;11.064;2024-03-07T02:00:41;10.25;74.25
68746;SHT31;73143;45.456;11.064;2024-03-07T02:03:17;10.21;74.20
68746;SHT31;73143;45.456;11.064;2024-03-07T02:05:54;10.16;74.23
68746;SHT31;73143;45.456;11.064;2024-03-07T02:08:31;10.15;74.22
68746;SHT31;73143;45.456;11.064;2024-03-07T02:11:08;10.13;74.20
68746;SHT31;73143;45.456;11.064;2024-03-07T02:13:45;10.12;74.10
68746;SHT31;73143;45.456;11.064;2024-03-07T02:16:21;10.10;74.10
68746;SHT31;73143;45.456;11.064;2024-03-07T02:18:58;10.09;74.14
68746;SHT31;73143;45.456;11.064;2024-03-07T02:21:34;10.07;74.07
68746;SHT31;73143;45.456;11.064;2024-03-07T02:24:11;10.03;74.05
68746;SHT31;73143;45.456;11.064;2024-03-07T02:26:48;10.01;74.11
68746;SHT31;73143;45.456;11.064;2024-03-07T02:29:25;9.99;74.01
68746;SHT31;73143;45.456;11.064;2024-03-07T02:32:01;9.99;73.99
68746;SHT31;73143;45.456;11.064;2024-03-07T02:34:39;10.02;73.93
68746;SHT31;73143;45.456;11.064;2024-03-07T02:37:16;10.03;73.71
68746;SHT31;73143;45.456;11.064;2024-03-07T02:39:52;10.02;73.70
68746;SHT31;73143;45.456;11.064;2024-03-07T02:42:28;10.00;73.71
68746;SHT31;73143;45.456;11.064;2024-03-07T02:45:06;9.99;73.80
68746;SHT31;73143;45.456;11.064;2024-03-07T02:47:44;9.99;73.91
68746;SHT31;73143;45.456;11.064;2024-03-07T02:50:20;10.00;73.88
68746;SHT31;73143;45.456;11.064;2024-03-07T02:52:56;9.98;73.84
68746;SHT31;73143;45.456;11.064;2024-03-07T02:55:33;9.99;74.01
68746;SHT31;73143;45.456;11.064;2024-03-07T02:58:11;10.02;74.07
68746;SHT31;73143;45.456;11.064;2024-03-07T03:00:47;10.03;74.02
68746;SHT31;73143;45.456;11.064;2024-03-07T03:03:31;10.04;73.85
68746;SHT31;73143;45.456;11.064;2024-03-07T03:06:11;10.03;73.90
68746;SHT31;73143;45.456;11.064;2024-03-07T03:08:49;10.04;73.93
68746;SHT31;73143;45.456;11.064;2024-03-07T03:11:26;10.05;73.88
68746;SHT31;73143;45.456;11.064;2024-03-07T03:14:03;10.04;73.85
68746;SHT31;73143;45.456;11.064;2024-03-07T03:16:42;10.05;73.92
68746;SHT31;73143;45.456;11.064;2024-03-07T03:19:18;10.08;73.97
68746;SHT31;73143;45.456;11.064;2024-03-07T03:21:55;10.10;73.89
68746;SHT31;73143;45.456;11.064;2024-03-07T03:24:32;10.09;73.95
68746;SHT31;73143;45.456;11.064;2024-03-07T03:27:10;10.07;74.17
68746;SHT31;73143;45.456;11.064;2024-03-07T03:29:46;10.08;74.44
68746;SHT31;73143;45.456;11.064;2024-03-07T03:32:24;10.11;74.69
68746;SHT31;73143;45.456;11.064;2024-03-07T03:35:00;10.09;74.99
68746;SHT31;73143;45.456;11.064;2024-03-07T03:37:42;10.06;75.24
68746;SHT31;73143;45.456;11.064;2024-03-07T03:40:19;10.05;75.12
68746;SHT31;73143;45.456;11.064;2024-03-07T03:42:56;10.02;75.08
68746;SHT31;73143;45.456;11.064;2024-03-07T03:45:32;9.95;74.75
68746;SHT31;73143;45.456;11.064;2024-03-07T03:48:08;9.91;74.60
68746;SHT31;73143;45.456;11.064;2024-03-07T03:50:45;9.91;74.64
68746;SHT31;73143;45.456;11.064;2024-03-07T03:53:23;9.90;74.61
68746;SHT31;73143;45.456;11.064;2024-03-07T03:56:00;9.92;74.70
68746;SHT31;73143;45.456;11.064;2024-03-07T03:58:41;9.92;74.63
68746;SHT31;73143;45.456;11.064;2024-03-07T04:01:18;9.92;74.50
68746;SHT31;73143;45.456;11.064;2024-03-07T04:03:55;9.92;74.48
68746;SHT31;73143;45.456;11.064;2024-03-07T04:06:32;9.93;74.64
68746;SHT31;73143;45.456;11.064;2024-03-07T04:09:09;9.91;74.69
68746;SHT31;73143;45.456;11.064;2024-03-07T04:11:46;9.88;74.82
68746;SHT31;73143;45.456;11.064;2024-03-07T04:14:22;9.84;74.86
68746;SHT31;73143;45.456;11.064;2024-03-07T04:17:01;9.83;74.89
68746;SHT31;73143;45.456;11.064;2024-03-07T04:19:39;9.83;74.91
68746;SHT31;73143;45.456;11.064;2024-03-07T04:22:16;9.83;74.89
68746;SHT31;73143;45.456;11.064;2024-03-07T04:24:53;9.81;75.18
68746;SHT31;73143;45.456;11.064;2024-03-07T04:27:30;9.85;75.17
68746;SHT31;73143;45.456;11.064;2024-03-07T04:30:09;9.85;75.32
68746;SHT31;73143;45.456;11.064;2024-03-07T04:32:47;9.88;75.32
68746;SHT31;73143;45.456;11.064;2024-03-07T04:35:25;9.90;74.91
68746;SHT31;73143;45.456;11.064;2024-03-07T04:38:01;9.91;74.91
68746;SHT31;73143;45.456;11.064;2024-03-07T04:40:44;9.92;74.96
68746;SHT31;73143;45.456;11.064;2024-03-07T04:43:20;9.92;74.52
68746;SHT31;73143;45.456;11.064;2024-03-07T04:45:57;9.94;74.78
68746;SHT31;73143;45.456;11.064;2024-03-07T04:48:35;9.96;74.85
68746;SHT31;73143;45.456;11.064;2024-03-07T04:51:11;9.98;74.71
68746;SHT31;73143;45.456;11.064;2024-03-07T04:53:48;10.00;74.70
68746;SHT31;73143;45.456;11.064;2024-03-07T04:56:24;10.04;74.51
68746;SHT31;73143;45.456;11.064;2024-03-07T04:59:01;10.06;74.49
68746;SHT31;73143;45.456;11.064;2024-03-07T05:01:37;10.06;74.90
68746;SHT31;73143;45.456;11.064;2024-03-07T05:04:14;10.04;75.24
68746;SHT31;73143;45.456;11.064;2024-03-07T05:06:54;9.99;75.51
68746;SHT31;73143;45.456;11.064;2024-03-07T05:09:31;9.94;75.66
68746;SHT31;73143;45.456;11.064;2024-03-07T05:12:08;9.92;75.79
68746;SHT31;73143;45.456;11.064;2024-03-07T05:14:44;9.91;75.83
68746;SHT31;73143;45.456;11.064;2024-03-07T05:17:21;9.90;75.97
68746;SHT31;73143;45.456;11.064;2024-03-07T05:19:58;9.90;76.08
68746;SHT31;73143;45.456;11.064;2024-03-07T05:22:40;9.91;76.07
68746;SHT31;73143;45.456;11.064;2024-03-07T05:25:20;9.92;75.85
68746;SHT31;73143;45.456;11.064;2024-03-07T05:27:56;9.89;75.82
68746;SHT31;73143;45.456;11.064;2024-03-07T05:30:34;9.82;75.89
68746;SHT31;73143;45.456;11.064;2024-03-07T05:33:10;9.75;76.06
68746;SHT31;73143;45.456;11.064;2024-03-07T05:35:50;9.72;76.28
68746;SHT31;73143;45.456;11.064;2024-03-07T05:38:42;9.73;76.39
68746;SHT31;73143;45.456;11.064;2024-03-07T05:41:21;9.75;76.31
68746;SHT31;73143;45.456;11.064;2024-03-07T05:43:58;9.72;76.20
68746;SHT31;73143;45.456;11.064;2024-03-07T05:46:38;9.66;76.36
68746;SHT31;73143;45.456;11.064;2024-03-07T05:49:17;9.60;76.45
68746;SHT31;73143;45.456;11.064;2024-03-07T05:51:54;9.53;76.61
68746;SHT31;73143;45.456;11.064;2024-03-07T05:54:30;9.50;76.73
68746;SHT31;73143;45.456;11.064;2024-03-07T05:57:06;9.51;76.90
68746;SHT31;73143;45.456;11.064;2024-03-07T05:59:44;9.56;77.00
68746;SHT31;73143;45.456;11.064;2024-03-07T06:02:20;9.53;76.95
68746;SHT31;73143;45.456;11.064;2024-03-07T06:04:56;9.52;76.80
68746;SHT31;73143;45.456;11.064;2024-03-07T06:07:34;9.50;76.80
68746;SHT31;73143;45.456;11.064;2024-03-07T06:10:10;9.47;76.84
68746;SHT31;73143;45.456;11.064;2024-03-07T06:12:47;9.48;76.94
68746;SHT31;73143;45.456;11.064;2024-03-07T06:15:39;9.47;77.10
68746;SHT31;73143;45.456;11.064;2024-03-07T06:18:17;9.48;77.00
68746;SHT31;73143;45.456;11.064;2024-03-07T06:20:53;9.48;77.01
68746;SHT31;73143;45.456;11.064;2024-03-07T06:23:30;9.51;77.02
68746;SHT31;73143;45.456;11.064;2024-03-07T06:26:06;9.51;76.91
68746;SHT31;73143;45.456;11.064;2024-03-07T06:28:57;9.52;76.93
68746;SHT31;73143;45.456;11.064;2024-03-07T06:31:35;9.54;76.92
68746;SHT31;73143;45.456;11.064;2024-03-07T06:34:12;9.55;77.01
68746;SHT31;73143;45.456;11.064;2024-03-07T06:36:48;9.59;77.02
68746;SHT31;73143;45.456;11.064;2024-03-07T06:39:25;9.65;77.05
68746;SHT31;73143;45.456;11.064;2024-03-07T06:42:02;9.70;77.11
68746;SHT31;73143;45.456;11.064;2024-03-07T06:44:39;9.73;77.01
68746;SHT31;73143;45.456;11.064;2024-03-07T06:47:15;9.75;77.07
68746;SHT31;73143;45.456;11.064;2024-03-07T06:49:51;9.78;77.05
68746;SHT31;73143;45.456;11.064;2024-03-07T06:52:28;9.80;77.06
68746;SHT31;73143;45.456;11.064;2024-03-07T06:55:05;9.83;77.11
68746;SHT31;73143;45.456;11.064;2024-03-07T06:57:46;9.88;77.19
68746;SHT31;73143;45.456;11.064;2024-03-07T07:00:22;9.94;77.10
68746;SHT31;73143;45.456;11.064;2024-03-07T07:03:01;9.99;76.90
68746;SHT31;73143;45.456;11.064;2024-03-07T07:05:39;10.04;76.75
68746;SHT31;73143;45.456;11.064;2024-03-07T07:08:15;10.05;76.53
68746;SHT31;73143;45.456;11.064;2024-03-07T07:10:52;10.02;77.06
68746;SHT31;73143;45.456;11.064;2024-03-07T07:13:29;9.95;77.48
68746;SHT31;73143;45.456;11.064;2024-03-07T07:16:06;9.90;77.74
68746;SHT31;73143;45.456;11.064;2024-03-07T07:18:43;9.88;77.85
68746;SHT31;73143;45.456;11.064;2024-03-07T07:21:18;9.89;77.96
68746;SHT31;73143;45.456;11.064;2024-03-07T07:23:55;9.95;78.06
68746;SHT31;73143;45.456;11.064;2024-03-07T07:26:31;9.99;78.02
68746;SHT31;73143;45.456;11.064;2024-03-07T07:29:08;10.06;77.99
68746;SHT31;73143;45.456;11.064;2024-03-07T07:31:46;10.11;77.90
68746;SHT31;73143;45.456;11.064;2024-03-07T07:34:22;10.17;77.90
68746;SHT31;73143;45.456;11.064;2024-03-07T07:36:59;10.23;77.81
68746;SHT31;73143;45.456;11.064;2024-03-07T07:39:39;10.28;77.90
68746;SHT31;73143;45.456;11.064;2024-03-07T07:42:14;10.34;77.88
68746;SHT31;73143;45.456;11.064;2024-03-07T07:44:51;10.39;77.75
68746;SHT31;73143;45.456;11.064;2024-03-07T07:47:28;10.43;77.80
68746;SHT31;73143;45.456;11.064;2024-03-07T07:50:09;10.46;77.86
68746;SHT31;73143;45.456;11.064;2024-03-07T07:52:48;10.45;77.87
68746;SHT31;73143;45.456;11.064;2024-03-07T07:55:26;10.45;77.67
68746;SHT31;73143;45.456;11.064;2024-03-07T07:58:02;10.47;77.48
68746;SHT31;73143;45.456;11.064;2024-03-07T08:00:39;10.51;77.28
68746;SHT31;73143;45.456;11.064;2024-03-07T08:03:21;10.56;77.20
68746;SHT31;73143;45.456;11.064;2024-03-07T08:05:57;10.64;77.11
68746;SHT31;73143;45.456;11.064;2024-03-07T08:08:35;10.70;77.09
68746;SHT31;73143;45.456;11.064;2024-03-07T08:11:11;10.76;77.24
68746;SHT31;73143;45.456;11.064;2024-03-07T08:13:48;10.82;77.47
68746;SHT31;73143;45.456;11.064;2024-03-07T08:16:24;10.88;77.35
68746;SHT31;73143;45.456;11.064;2024-03-07T08:19:05;10.92;77.27
68746;SHT31;73143;45.456;11.064;2024-03-07T08:21:43;10.94;77.24
68746;SHT31;73143;45.456;11.064;2024-03-07T08:24:20;10.95;77.11
68746;SHT31;73143;45.456;11.064;2024-03-07T08:26:56;10.98;76.79
68746;SHT31;73143;45.456;11.064;2024-03-07T08:29:33;11.00;76.42
68746;SHT31;73143;45.456;11.064;2024-03-07T08:32:10;11.04;76.37
68746;SHT31;73143;45.456;11.064;2024-03-07T08:34:47;11.09;76.16
68746;SHT31;73143;45.456;11.064;2024-03-07T08:37:24;11.13;75.58
68746;SHT31;73143;45.456;11.064;2024-03-07T08:40:03;11.13;75.68
68746;SHT31;73143;45.456;11.064;2024-03-07T08:42:54;11.17;75.93
68746;SHT31;73143;45.456;11.064;2024-03-07T08:45:32;11.18;75.89
68746;SHT31;73143;45.456;11.064;2024-03-07T08:48:09;11.20;75.67
68746;SHT31;73143;45.456;11.064;2024-03-07T08:50:46;11.24;75.64
68746;SHT31;73143;45.456;11.064;2024-03-07T08:53:23;11.27;75.97
68746;SHT31;73143;45.456;11.064;2024-03-07T08:56:00;11.32;75.78
68746;SHT31;73143;45.456;11.064;2024-03-07T08:58:37;11.36;75.69
68746;SHT31;73143;45.456;11.064;2024-03-07T09:01:13;11.41;76.03
68746;SHT31;73143;45.456;11.064;2024-03-07T09:03:50;11.45;76.01
68746;SHT31;73143;45.456;11.064;2024-03-07T09:06:28;11.51;75.97
68746;SHT31;73143;45.456;11.064;2024-03-07T09:09:05;11.57;75.88
68746;SHT31;73143;45.456;11.064;2024-03-07T09:11:43;11.63;75.75
68746;SHT31;73143;45.456;11.064;2024-03-07T09:14:19;11.68;75.59
68746;SHT31;73143;45.456;11.064;2024-03-07T09:16:55;11.75;75.18
68746;SHT31;73143;45.456;11.064;2024-03-07T09:19:33;11.80;74.89
68746;SHT31;73143;45.456;11.064;2024-03-07T09:22:10;11.88;74.77
68746;SHT31;73143;45.456;11.064;2024-03-07T09:24:47;11.93;74.88
68746;SHT31;73143;45.456;11.064;2024-03-07T09:27:23;12.00;75.12
68746;SHT31;73143;45.456;11.064;2024-03-07T09:29:59;12.04;75.42
68746;SHT31;73143;45.456;11.064;2024-03-07T09:32:41;12.07;75.71
68746;SHT31;73143;45.456;11.064;2024-03-07T09:35:18;12.10;75.78
68746;SHT31;73143;45.456;11.064;2024-03-07T09:37:56;12.15;75.70
68746;SHT31;73143;45.456;11.064;2024-03-07T09:40:33;12.18;75.24
68746;SHT31;73143;45.456;11.064;2024-03-07T09:43:09;12.21;75.39
68746;SHT31;73143;45.456;11.064;2024-03-07T09:45:49;12.26;75.36
68746;SHT31;73143;45.456;11.064;2024-03-07T09:48:27;12.30;75.31
68746;SHT31;73143;45.456;11.064;2024-03-07T09:51:03;12.35;75.42
68746;SHT31;73143;45.456;11.064;2024-03-07T09:53:41;12.42;75.30
68746;SHT31;73143;45.456;11.064;2024-03-07T09:56:21;12.46;75.19
68746;SHT31;73143;45.456;11.064;2024-03-07T09:58:59;12.52;75.10
68746;SHT31;73143;45.456;11.064;2024-03-07T10:01:39;12.56;74.82
68746;SHT31;73143;45.456;11.064;2024-03-07T10:04:21;12.58;74.42
68746;SHT31;73143;45.456;11.064;2024-03-07T10:07:13;12.60;74.11
68746;SHT31;73143;45.456;11.064;2024-03-07T10:09:51;12.66;74.19
68746;SHT31;73143;45.456;11.064;2024-03-07T10:12:39;12.72;73.77
68746;SHT31;73143;45.456;11.064;2024-03-07T10:15:16;12.75;73.64
68746;SHT31;73143;45.456;11.064;2024-03-07T10:17:58;12.80;73.58
68746;SHT31;73143;45.456;11.064;2024-03-07T10:20:41;12.84;73.20
68746;SHT31;73143;45.456;11.064;2024-03-07T10:23:20;12.85;73.07
68746;SHT31;73143;45.456;11.064;2024-03-07T10:25:56;12.89;73.05
68746;SHT31;73143;45.456;11.064;2024-03-07T10:28:33;12.90;72.94
68746;SHT31;73143;45.456;11.064;2024-03-07T10:31:12;12.92;73.05
68746;SHT31;73143;45.456;11.064;2024-03-07T10:34:13;12.94;73.13
68746;SHT31;73143;45.456;11.064;2024-03-07T10:36:52;12.97;73.17
68746;SHT31;73143;45.456;11.064;2024-03-07T10:39:33;12.98;72.58
68746;SHT31;73143;45.456;11.064;2024-03-07T10:42:10;13.00;72.47
68746;SHT31;73143;45.456;11.064;2024-03-07T10:44:54;13.02;72.60
68746;SHT31;73143;45.456;11.064;2024-03-07T10:47:39;13.04;72.02
68746;SHT31;73143;45.456;11.064;2024-03-07T10:50:23;13.06;71.87
68746;SHT31;73143;45.456;11.064;2024-03-07T10:53:19;13.11;71.91
68746;SHT31;73143;45.456;11.064;2024-03-07T10:56:05;13.16;71.95
68746;SHT31;73143;45.456;11.064;2024-03-07T10:59:01;13.24;71.86
68746;SHT31;73143;45.456;11.064;2024-03-07T11:01:54;13.31;71.86
68746;SHT31;73143;45.456;11.064;2024-03-07T11:04:45;13.35;71.51
68746;SHT31;73143;45.456;11.064;2024-03-07T11:07:22;13.40;71.13
68746;SHT31;73143;45.456;11.064;2024-03-07T11:09:59;13.43;70.92
68746;SHT31;73143;45.456;11.064;2024-03-07T11:12:41;13.46;71.02
68746;SHT31;73143;45.456;11.064;2024-03-07T11:15:20;13.48;70.57
68746;SHT31;73143;45.456;11.064;2024-03-07T11:17:59;13.50;70.72
68746;SHT31;73143;45.456;11.064;2024-03-07T11:20:38;13.52;70.50
68746;SHT31;73143;45.456;11.064;2024-03-07T11:23:28;13.55;70.56
68746;SHT31;73143;45.456;11.064;2024-03-07T11:26:08;13.58;70.46
68746;SHT31;73143;45.456;11.064;2024-03-07T11:28:44;13.60;70.38
68746;SHT31;73143;45.456;11.064;2024-03-07T11:31:26;13.64;70.04
68746;SHT31;73143;45.456;11.064;2024-03-07T11:34:15;13.69;69.30
68746;SHT31;73143;45.456;11.064;2024-03-07T11:36:52;13.70;68.72
68746;SHT31;73143;45.456;11.064;2024-03-07T11:39:41;13.71;69.23
68746;SHT31;73143;45.456;11.064;2024-03-07T11:42:43;13.78;68.89
68746;SHT31;73143;45.456;11.064;2024-03-07T11:45:22;13.87;67.59
68746;SHT31;73143;45.456;11.064;2024-03-07T11:47:59;13.94;66.63
68746;SHT31;73143;45.456;11.064;2024-03-07T11:50:40;14.00;66.04
68746;SHT31;73143;45.456;11.064;2024-03-07T11:53:16;14.09;66.17
68746;SHT31;73143;45.456;11.064;2024-03-07T11:55:53;14.19;65.61
68746;SHT31;73143;45.456;11.064;2024-03-07T11:58:39;14.24;64.63
68746;SHT31;73143;45.456;11.064;2024-03-07T12:01:24;14.28;64.41
68746;SHT31;73143;45.456;11.064;2024-03-07T12:04:05;14.34;64.09
68746;SHT31;73143;45.456;11.064;2024-03-07T12:06:51;14.45;64.00
68746;SHT31;73143;45.456;11.064;2024-03-07T12:09:29;14.53;63.43
68746;SHT31;73143;45.456;11.064;2024-03-07T12:12:06;14.62;62.61
68746;SHT31;73143;45.456;11.064;2024-03-07T12:14:42;14.68;61.93
68746;SHT31;73143;45.456;11.064;2024-03-07T12:17:20;14.67;60.43
68746;SHT31;73143;45.456;11.064;2024-03-07T12:19:59;14.64;60.82
68746;SHT31;73143;45.456;11.064;2024-03-07T12:22:56;14.69;61.06
68746;SHT31;73143;45.456;11.064;2024-03-07T12:25:34;14.77;60.61
68746;SHT31;73143;45.456;11.064;2024-03-07T12:28:11;14.86;60.03
68746;SHT31;73143;45.456;11.064;2024-03-07T12:30:58;14.96;60.13
68746;SHT31;73143;45.456;11.064;2024-03-07T12:33:45;15.11;59.79
68746;SHT31;73143;45.456;11.064;2024-03-07T12:36:22;15.22;59.32
68746;SHT31;73143;45.456;11.064;2024-03-07T12:39:04;15.37;59.52
68746;SHT31;73143;45.456;11.064;2024-03-07T12:41:53;15.53;58.93
68746;SHT31;73143;45.456;11.064;2024-03-07T12:44:40;15.64;57.81
68746;SHT31;73143;45.456;11.064;2024-03-07T12:47:17;15.71;57.97
68746;SHT31;73143;45.456;11.064;2024-03-07T12:49:55;15.75;58.11
68746;SHT31;73143;45.456;11.064;2024-03-07T12:52:36;15.80;57.93
68746;SHT31;73143;45.456;11.064;2024-03-07T12:55:14;15.81;57.55
68746;SHT31;73143;45.456;11.064;2024-03-07T12:57:52;15.79;57.49
68746;SHT31;73143;45.456;11.064;2024-03-07T13:00:31;15.85;57.33
68746;SHT31;73143;45.456;11.064;2024-03-07T13:03:07;15.84;57.41
68746;SHT31;73143;45.456;11.064;2024-03-07T13:05:44;15.76;57.15
68746;SHT31;73143;45.456;11.064;2024-03-07T13:08:21;15.68;57.96
68746;SHT31;73143;45.456;11.064;2024-03-07T13:10:58;15.71;57.27
68746;SHT31;73143;45.456;11.064;2024-03-07T13:13:35;15.70;56.32
68746;SHT31;73143;45.456;11.064;2024-03-07T13:16:12;15.71;56.40
68746;SHT31;73143;45.456;11.064;2024-03-07T13:18:49;15.73;56.71
68746;SHT31;73143;45.456;11.064;2024-03-07T13:21:25;15.69;55.98
68746;SHT31;73143;45.456;11.064;2024-03-07T13:24:05;15.66;55.26
68746;SHT31;73143;45.456;11.064;2024-03-07T13:26:42;15.61;54.99
68746;SHT31;73143;45.456;11.064;2024-03-07T13:29:19;15.54;55.62
68746;SHT31;73143;45.456;11.064;2024-03-07T13:31:56;15.48;56.01
68746;SHT31;73143;45.456;11.064;2024-03-07T13:34:32;15.45;56.57
68746;SHT31;73143;45.456;11.064;2024-03-07T13:37:10;15.42;56.35
68746;SHT31;73143;45.456;11.064;2024-03-07T13:39:47;15.40;57.21
68746;SHT31;73143;45.456;11.064;2024-03-07T13:42:23;15.38;58.14
68746;SHT31;73143;45.456;11.064;2024-03-07T13:44:59;15.37;58.47
68746;SHT31;73143;45.456;11.064;2024-03-07T13:47:42;15.36;58.23
68746;SHT31;73143;45.456;11.064;2024-03-07T13:50:18;15.37;58.08
68746;SHT31;73143;45.456;11.064;2024-03-07T13:53:17;15.36;58.00
68746;SHT31;73143;45.456;11.064;2024-03-07T14:02:52;15.23;56.90
68746;SHT31;73143;45.456;11.064;2024-03-07T14:06:12;15.19;56.09
68746;SHT31;73143;45.456;11.064;2024-03-07T14:12:31;15.16;56.23
68746;SHT31;73143;45.456;11.064;2024-03-07T14:23:01;15.01;55.51
68746;SHT31;73143;45.456;11.064;2024-03-07T14:25:54;14.99;55.92
68746;SHT31;73143;45.456;11.064;2024-03-07T14:29:12;14.98;55.67
68746;SHT31;73143;45.456;11.064;2024-03-07T14:32:02;15.01;56.06
68746;SHT31;73143;45.456;11.064;2024-03-07T14:34:45;15.08;56.33
68746;SHT31;73143;45.456;11.064;2024-03-07T14:37:52;15.13;57.15
68746;SHT31;73143;45.456;11.064;2024-03-07T14:40:54;15.13;56.96
68746;SHT31;73143;45.456;11.064;2024-03-07T14:43:30;15.10;56.51
68746;SHT31;73143;45.456;11.064;2024-03-07T14:46:07;15.09;56.60
68746;SHT31;73143;45.456;11.064;2024-03-07T14:48:45;15.04;55.87
68746;SHT31;73143;45.456;11.064;2024-03-07T14:51:22;14.94;55.82
68746;SHT31;73143;45.456;11.064;2024-03-07T14:54:09;14.85;56.12
68746;SHT31;73143;45.456;11.064;2024-03-07T14:56:46;14.80;56.17
68746;SHT31;73143;45.456;11.064;2024-03-07T14:59:22;14.77;56.28
68746;SHT31;73143;45.456;11.064;2024-03-07T15:01:59;14.73;56.21
68746;SHT31;73143;45.456;11.064;2024-03-07T15:04:39;14.70;56.98
68746;SHT31;73143;45.456;11.064;2024-03-07T15:07:16;14.67;57.54
68746;SHT31;73143;45.456;11.064;2024-03-07T15:09:52;14.65;57.03
68746;SHT31;73143;45.456;11.064;2024-03-07T15:12:28;14.59;56.60
68746;SHT31;73143;45.456;11.064;2024-03-07T15:15:06;14.53;57.00
68746;SHT31;73143;45.456;11.064;2024-03-07T15:17:45;14.51;57.37
68746;SHT31;73143;45.456;11.064;2024-03-07T15:20:24;14.50;57.90
68746;SHT31;73143;45.456;11.064;2024-03-07T15:23:00;14.49;57.94
68746;SHT31;73143;45.456;11.064;2024-03-07T15:25:37;14.47;58.14
68746;SHT31;73143;45.456;11.064;2024-03-07T15:28:13;14.42;58.04
68746;SHT31;73143;45.456;11.064;2024-03-07T15:30:51;14.37;58.46
68746;SHT31;73143;45.456;11.064;2024-03-07T15:33:28;14.34;58.63
68746;SHT31;73143;45.456;11.064;2024-03-07T15:36:06;14.32;59.06
68746;SHT31;73143;45.456;11.064;2024-03-07T15:38:42;14.30;59.29
68746;SHT31;73143;45.456;11.064;2024-03-07T15:41:18;14.28;59.62
68746;SHT31;73143;45.456;11.064;2024-03-07T15:43:55;14.28;59.74
68746;SHT31;73143;45.456;11.064;2024-03-07T15:49:07;14.22;60.02
68746;SHT31;73143;45.456;11.064;2024-03-07T15:51:43;14.19;59.86
68746;SHT31;73143;45.456;11.064;2024-03-07T15:54:20;14.14;59.77
68746;SHT31;73143;45.456;11.064;2024-03-07T15:56:56;14.08;60.06
68746;SHT31;73143;45.456;11.064;2024-03-07T15:59:35;14.03;60.14
68746;SHT31;73143;45.456;11.064;2024-03-07T16:02:15;13.98;60.56
68746;SHT31;73143;45.456;11.064;2024-03-07T16:04:52;13.92;60.95
68746;SHT31;73143;45.456;11.064;2024-03-07T16:07:29;13.88;61.38
68746;SHT31;73143;45.456;11.064;2024-03-07T16:10:06;13.85;61.73
68746;SHT31;73143;45.456;11.064;2024-03-07T16:12:44;13.82;62.06
68746;SHT31;73143;45.456;11.064;2024-03-07T16:15:22;13.78;62.39
68746;SHT31;73143;45.456;11.064;2024-03-07T16:18:09;13.75;62.77
68746;SHT31;73143;45.456;11.064;2024-03-07T16:20:46;13.71;63.05
68746;SHT31;73143;45.456;11.064;2024-03-07T16:23:24;13.68;63.34
68746;SHT31;73143;45.456;11.064;2024-03-07T16:26:01;13.64;63.69
68746;SHT31;73143;45.456;11.064;2024-03-07T16:28:38;13.59;64.02
68746;SHT31;73143;45.456;11.064;2024-03-07T16:31:14;13.57;64.36
68746;SHT31;73143;45.456;11.064;2024-03-07T16:33:51;13.54;64.56
68746;SHT31;73143;45.456;11.064;2024-03-07T16:36:29;13.49;64.78
68746;SHT31;73143;45.456;11.064;2024-03-07T16:39:06;13.43;65.09
68746;SHT31;73143;45.456;11.064;2024-03-07T16:41:44;13.39;65.38
68746;SHT31;73143;45.456;11.064;2024-03-07T16:44:21;13.38;65.41
68746;SHT31;73143;45.456;11.064;2024-03-07T16:46:57;13.36;65.57
68746;SHT31;73143;45.456;11.064;2024-03-07T16:49:34;13.35;65.78
68746;SHT31;73143;45.456;11.064;2024-03-07T16:52:13;13.36;65.78
68746;SHT31;73143;45.456;11.064;2024-03-07T16:54:52;13.35;65.92